createdAt,value
2018-09-28T00:00:51.382Z,0.80
2018-09-28T00:03:19.881Z,1.00
2018-09-28T00:05:48.243Z,0.90
2018-09-28T00:08:16.636Z,0.67
2018-09-28T00:10:45.129Z,0.80
2018-09-28T00:13:13.532Z,0.80
2018-09-28T00:15:41.795Z,1.00
2018-09-28T00:18:10.325Z,0.70
2018-09-28T00:20:38.828Z,0.90
2018-09-28T00:23:07.121Z,0.80
2018-09-28T00:25:35.811Z,0.70
2018-09-28T00:28:04.530Z,1.00
2018-09-28T00:30:33.203Z,0.70
2018-09-28T00:33:01.574Z,1.00
2018-09-28T00:35:30.023Z,0.60
2018-09-28T00:37:58.511Z,0.83
2018-09-28T00:40:26.991Z,0.90
2018-09-28T00:42:55.399Z,0.70
2018-09-28T00:45:24.092Z,0.70
2018-09-28T00:47:52.685Z,0.80
2018-09-28T00:50:21.112Z,1.00
2018-09-28T00:52:49.600Z,0.80
2018-09-28T00:55:18.035Z,0.80
2018-09-28T00:57:46.401Z,0.83
2018-09-28T01:00:14.856Z,0.70
2018-09-28T01:02:43.249Z,0.73
2018-09-28T01:05:11.688Z,0.67
2018-09-28T01:07:40.065Z,0.50
2018-09-28T01:10:08.495Z,0.60
2018-09-28T01:12:36.881Z,0.70
2018-09-28T01:15:05.379Z,0.80
2018-09-28T01:17:33.656Z,0.70
2018-09-28T01:20:01.996Z,0.50
2018-09-28T01:22:30.404Z,0.60
2018-09-28T01:24:58.739Z,0.50
2018-09-28T01:27:27.203Z,0.70
2018-09-28T01:29:55.567Z,0.60
2018-09-28T01:32:24.022Z,0.60
2018-09-28T01:34:52.356Z,0.70
2018-09-28T01:37:20.709Z,0.60
2018-09-28T01:39:49.060Z,0.67
2018-09-28T01:42:17.412Z,0.77
2018-09-28T01:44:45.781Z,0.70
2018-09-28T01:47:14.148Z,0.43
2018-09-28T01:49:42.529Z,0.80
2018-09-28T01:52:10.895Z,0.70
2018-09-28T01:54:39.329Z,0.63
2018-09-28T01:57:07.831Z,0.60
2018-09-28T01:59:36.287Z,0.60
2018-09-28T02:02:04.648Z,0.70
2018-09-28T02:04:32.936Z,0.70
2018-09-28T02:07:01.419Z,0.80
2018-09-28T02:09:29.684Z,0.80
2018-09-28T02:11:58.037Z,0.80
2018-09-28T02:14:26.379Z,0.80
2018-09-28T02:16:54.756Z,0.80
2018-09-28T02:19:23.209Z,0.87
2018-09-28T02:21:51.625Z,0.90
2018-09-28T02:24:19.971Z,0.70
2018-09-28T02:26:48.367Z,0.87
2018-09-28T02:29:16.705Z,0.60
2018-09-28T02:31:45.185Z,0.60
2018-09-28T02:34:13.692Z,0.90
2018-09-28T02:36:41.978Z,0.73
2018-09-28T02:39:10.320Z,0.77
2018-09-28T02:41:38.736Z,0.83
2018-09-28T02:44:07.053Z,0.80
2018-09-28T02:46:35.465Z,0.83
2018-09-28T02:49:03.908Z,0.87
2018-09-28T02:51:32.290Z,0.90
2018-09-28T02:54:00.659Z,1.00
2018-09-28T02:56:29.107Z,0.90
2018-09-28T02:58:57.440Z,0.70
2018-09-28T03:01:25.875Z,0.90
2018-09-28T03:03:54.287Z,0.90
2018-09-28T03:06:22.804Z,0.90
2018-09-28T03:08:51.199Z,0.57
2018-09-28T03:11:19.740Z,0.60
2018-09-28T03:13:48.175Z,0.90
2018-09-28T03:16:16.631Z,0.70
2018-09-28T03:18:44.954Z,0.60
2018-09-28T03:21:13.342Z,0.63
2018-09-28T03:23:41.940Z,0.50
2018-09-28T03:26:10.355Z,0.70
2018-09-28T03:28:38.696Z,0.80
2018-09-28T03:31:07.112Z,0.80
2018-09-28T03:33:35.562Z,0.80
2018-09-28T03:36:04.050Z,0.57
2018-09-28T03:38:32.568Z,0.80
2018-09-28T03:41:00.982Z,0.53
2018-09-28T03:43:29.495Z,0.53
2018-09-28T03:45:57.949Z,0.47
2018-09-28T03:48:26.440Z,0.63
2018-09-28T03:50:54.828Z,0.60
2018-09-28T03:53:23.867Z,0.60
2018-09-28T03:55:52.362Z,0.50
2018-09-28T03:58:20.904Z,0.60
2018-09-28T04:00:49.369Z,0.63
2018-09-28T04:03:17.845Z,0.60
2018-09-28T04:05:46.375Z,0.70
2018-09-28T04:08:14.880Z,0.70
2018-09-28T04:10:43.348Z,0.60
2018-09-28T04:13:11.758Z,0.70
2018-09-28T04:15:40.175Z,0.70
2018-09-28T04:18:08.544Z,0.60
2018-09-28T04:20:36.962Z,0.70
2018-09-28T04:23:05.417Z,0.60
2018-09-28T04:25:33.910Z,0.50
2018-09-28T04:28:02.311Z,0.60
2018-09-28T04:30:30.695Z,0.70
2018-09-28T04:32:59.007Z,0.70
2018-09-28T04:35:27.817Z,0.50
2018-09-28T04:37:56.315Z,1.00
2018-09-28T04:40:24.940Z,1.00
2018-09-28T04:42:53.324Z,0.90
2018-09-28T04:45:21.928Z,0.80
2018-09-28T04:47:50.376Z,0.90
2018-09-28T04:50:18.762Z,0.80
2018-09-28T04:52:47.218Z,0.87
2018-09-28T04:55:15.576Z,0.70
2018-09-28T04:57:43.963Z,0.70
2018-09-28T05:00:12.403Z,0.67
2018-09-28T05:02:40.951Z,0.80
2018-09-28T05:05:09.426Z,0.70
2018-09-28T05:07:37.779Z,0.83
2018-09-28T05:10:06.245Z,0.70
2018-09-28T05:12:34.726Z,0.80
2018-09-28T05:15:03.186Z,0.80
2018-09-28T05:17:31.596Z,0.90
2018-09-28T05:20:00.032Z,0.70
2018-09-28T05:22:28.432Z,0.83
2018-09-28T05:24:56.859Z,0.80
2018-09-28T05:27:25.218Z,0.70
2018-09-28T05:29:53.564Z,0.80
2018-09-28T05:32:22.040Z,0.80
2018-09-28T05:34:50.316Z,0.70
2018-09-28T05:37:18.862Z,0.80
2018-09-28T05:39:47.296Z,0.87
2018-09-28T05:42:15.583Z,0.80
2018-09-28T05:44:44.020Z,0.97
2018-09-28T05:47:12.484Z,0.70
2018-09-28T05:49:40.728Z,0.70
2018-09-28T05:52:09.045Z,0.80
2018-09-28T05:54:37.500Z,0.70
2018-09-28T05:57:06.038Z,0.90
2018-09-28T06:01:45.817Z,0.80
2018-09-28T06:04:19.732Z,0.90
2018-09-28T06:06:48.100Z,0.83
2018-09-28T06:09:16.631Z,0.97
2018-09-28T06:11:45.024Z,1.07
2018-09-28T06:14:16.026Z,9.03
2018-09-28T06:16:44.476Z,5.50
2018-09-28T06:19:12.812Z,6.20
2018-09-28T06:21:41.206Z,17.30
2018-09-28T06:24:09.652Z,16.03
2018-09-28T06:26:38.027Z,7.07
2018-09-28T06:29:06.463Z,4.00
2018-09-28T06:31:34.759Z,13.90
2018-09-28T06:34:03.144Z,11.73
2018-09-28T06:36:31.671Z,5.67
2018-09-28T06:39:00.220Z,2.70
2018-09-28T06:41:28.608Z,2.53
2018-09-28T06:43:56.970Z,3.60
2018-09-28T06:46:25.411Z,2.63
2018-09-28T06:48:53.878Z,2.60
2018-09-28T06:51:22.274Z,3.13
2018-09-28T06:53:50.566Z,3.60
2018-09-28T06:56:19.002Z,3.43
2018-09-28T06:58:47.465Z,3.63
2018-09-28T07:01:15.884Z,3.70
2018-09-28T07:03:44.226Z,3.70
2018-09-28T07:06:12.656Z,3.40
2018-09-28T07:08:41.041Z,3.10
2018-09-28T07:11:09.343Z,2.60
2018-09-28T07:13:37.814Z,2.77
2018-09-28T07:16:07.055Z,2.30
2018-09-28T07:18:35.416Z,3.30
2018-09-28T07:21:03.740Z,3.20
2018-09-28T07:23:32.013Z,3.23
2018-09-28T07:26:00.503Z,3.63
2018-09-28T07:28:28.931Z,3.00
2018-09-28T07:30:57.284Z,3.00
2018-09-28T07:33:26.314Z,2.90
2018-09-28T07:35:54.662Z,3.00
2018-09-28T07:38:23.856Z,2.63
2018-09-28T07:40:52.195Z,2.80
2018-09-28T07:43:21.034Z,2.80
2018-09-28T07:45:49.483Z,2.57
2018-09-28T07:48:17.940Z,2.20
2018-09-28T07:50:46.287Z,2.17
2018-09-28T07:53:14.803Z,2.00
2018-09-28T07:55:43.277Z,2.10
2018-09-28T07:58:11.604Z,1.80
2018-09-28T08:00:39.960Z,2.07
2018-09-28T08:03:08.428Z,1.70
2018-09-28T08:05:36.736Z,2.00
2018-09-28T08:08:05.124Z,1.97
2018-09-28T08:10:33.735Z,2.13
2018-09-28T08:13:02.050Z,2.00
2018-09-28T08:15:30.596Z,1.70
2018-09-28T08:17:59.088Z,1.60
2018-09-28T08:20:27.513Z,1.47
2018-09-28T08:22:55.916Z,1.50
2018-09-28T08:25:24.421Z,1.40
2018-09-28T08:27:52.844Z,1.30
2018-09-28T08:30:21.331Z,1.90
2018-09-28T08:32:49.649Z,1.70
2018-09-28T08:35:18.096Z,1.33
2018-09-28T08:37:46.452Z,1.53
2018-09-28T08:40:14.837Z,1.73
2018-09-28T08:42:43.261Z,1.70
2018-09-28T08:45:11.587Z,1.60
2018-09-28T08:47:39.854Z,2.00
2018-09-28T08:50:08.352Z,1.90
2018-09-28T08:52:36.662Z,1.83
2018-09-28T08:55:05.231Z,1.50
2018-09-28T08:57:33.743Z,2.07
2018-09-28T09:00:02.049Z,1.80
2018-09-28T09:02:30.306Z,1.43
2018-09-28T09:04:58.742Z,1.10
2018-09-28T09:07:27.210Z,1.17
2018-09-28T09:09:55.555Z,1.30
2018-09-28T09:12:23.983Z,1.00
2018-09-28T09:15:17.352Z,1.20
2018-09-28T09:17:45.729Z,1.30
2018-09-28T09:20:14.078Z,1.40
2018-09-28T09:22:42.463Z,1.17
2018-09-28T09:25:10.867Z,1.43
2018-09-28T09:27:39.251Z,1.30
2018-09-28T09:30:07.688Z,1.30
2018-09-28T09:32:35.943Z,1.17
2018-09-28T09:35:04.517Z,1.57
2018-09-28T09:37:32.959Z,1.30
2018-09-28T09:40:01.514Z,1.22
2018-09-28T09:42:29.836Z,1.25
2018-09-28T09:44:58.211Z,1.10
2018-09-28T09:47:26.623Z,1.20
2018-09-28T09:49:55.867Z,0.95
2018-09-28T09:52:24.276Z,1.30
2018-09-28T09:54:52.722Z,1.20
2018-09-28T09:57:21.153Z,1.10
2018-09-28T09:59:49.571Z,1.30
2018-09-28T10:02:23.583Z,1.27
2018-09-28T10:04:51.898Z,1.55
2018-09-28T10:07:20.243Z,1.37
2018-09-28T10:09:48.741Z,1.30
2018-09-28T10:12:17.143Z,1.50
2018-09-28T10:15:23.224Z,1.60
2018-09-28T10:17:51.652Z,1.65
2018-09-28T10:20:20.070Z,1.32
2018-09-28T10:22:48.468Z,1.60
2018-09-28T10:25:16.846Z,1.80
2018-09-28T10:27:45.408Z,1.57
2018-09-28T10:30:13.929Z,1.87
2018-09-28T10:32:42.463Z,1.45
2018-09-28T10:35:10.931Z,1.52
2018-09-28T10:37:39.343Z,1.42
2018-09-28T10:40:07.953Z,1.77
2018-09-28T10:42:36.721Z,1.90
2018-09-28T10:45:05.233Z,1.95
2018-09-28T10:47:33.698Z,1.85
2018-09-28T10:50:02.115Z,1.57
2018-09-28T10:52:30.612Z,1.90
2018-09-28T10:54:58.987Z,1.77
2018-09-28T10:57:27.507Z,2.05
2018-09-28T10:59:56.003Z,1.87
2018-09-28T11:02:24.551Z,2.02
2018-09-28T11:04:52.995Z,2.00
2018-09-28T11:07:21.868Z,2.00
2018-09-28T11:09:50.293Z,1.90
2018-09-28T11:12:18.574Z,1.80
2018-09-28T11:15:37.685Z,1.87
2018-09-28T11:18:06.240Z,2.10
2018-09-28T11:20:34.631Z,2.30
2018-09-28T11:23:03.068Z,2.83
2018-09-28T11:25:31.541Z,2.80
2018-09-28T11:28:00.033Z,2.77
2018-09-28T11:30:28.950Z,2.35
2018-09-28T11:32:57.585Z,2.30
2018-09-28T11:35:25.911Z,2.30
2018-09-28T11:37:54.408Z,2.22
2018-09-28T11:40:22.789Z,2.30
2018-09-28T11:42:51.344Z,2.17
2018-09-28T11:45:19.783Z,2.30
2018-09-28T11:47:48.052Z,2.60
2018-09-28T11:50:16.480Z,2.08
2018-09-28T11:52:44.879Z,1.50
2018-09-28T11:55:13.328Z,2.15
2018-09-28T11:57:41.825Z,2.08
2018-09-28T12:00:10.230Z,1.92
2018-09-28T12:02:38.715Z,1.80
2018-09-28T12:05:07.145Z,1.87
2018-09-28T12:07:35.595Z,1.65
2018-09-28T12:10:04.023Z,1.35
2018-09-28T12:12:32.428Z,1.40
2018-09-28T12:15:35.813Z,1.60
2018-09-28T12:18:04.276Z,1.60
2018-09-28T12:20:32.895Z,1.50
2018-09-28T12:23:01.271Z,2.00
2018-09-28T12:25:29.901Z,1.60
2018-09-28T12:27:58.344Z,2.20
2018-09-28T12:30:26.974Z,2.40
2018-09-28T12:32:55.399Z,2.00
2018-09-28T12:35:23.782Z,1.80
2018-09-28T12:37:52.187Z,1.62
2018-09-28T12:40:20.539Z,1.77
2018-09-28T12:42:48.848Z,1.42
2018-09-28T12:45:17.331Z,1.50
2018-09-28T12:47:45.748Z,1.75
2018-09-28T12:50:14.044Z,2.30
2018-09-28T12:52:42.446Z,1.50
2018-09-28T12:55:10.919Z,1.50
2018-09-28T12:57:39.284Z,1.50
2018-09-28T13:00:07.749Z,1.60
2018-09-28T13:02:36.118Z,1.27
2018-09-28T13:05:04.425Z,1.65
2018-09-28T13:07:32.836Z,1.30
2018-09-28T13:10:01.237Z,1.57
2018-09-28T13:12:29.612Z,1.20
2018-09-28T13:15:32.834Z,1.10
2018-09-28T13:18:01.347Z,1.30
2018-09-28T13:20:30.095Z,1.30
2018-09-28T13:22:58.332Z,1.40
2018-09-28T13:25:26.993Z,1.10
2018-09-28T13:27:55.437Z,1.30
2018-09-28T13:30:23.900Z,1.20
2018-09-28T13:32:52.341Z,1.20
2018-09-28T13:35:20.755Z,1.10
2018-09-28T13:37:49.082Z,1.20
2018-09-28T13:40:17.438Z,1.32
2018-09-28T13:42:45.959Z,1.30
2018-09-28T13:45:14.352Z,1.30
2018-09-28T13:47:42.658Z,1.20
2018-09-28T13:50:11.221Z,1.60
2018-09-28T13:52:39.797Z,1.27
2018-09-28T13:55:08.488Z,1.25
2018-09-28T13:57:36.989Z,1.32
2018-09-28T14:00:05.694Z,1.10
2018-09-28T14:02:34.162Z,1.22
2018-09-28T14:05:02.529Z,1.30
2018-09-28T14:07:30.868Z,1.20
2018-09-28T14:09:59.281Z,1.40
2018-09-28T14:12:27.731Z,1.40
2018-09-28T14:18:09.500Z,1.20
2018-09-28T14:20:37.963Z,1.30
2018-09-28T14:23:06.315Z,1.57
2018-09-28T14:25:34.947Z,1.20
2018-09-28T14:28:03.480Z,1.17
2018-09-28T14:30:32.312Z,1.35
2018-09-28T14:33:00.760Z,1.45
2018-09-28T14:35:29.548Z,1.10
2018-09-28T14:37:57.949Z,1.40
2018-09-28T14:40:26.538Z,1.35
2018-09-28T14:42:54.821Z,1.35
2018-09-28T14:45:23.424Z,1.47
2018-09-28T14:47:51.931Z,1.27
2018-09-28T14:50:20.460Z,1.40
2018-09-28T14:52:48.886Z,1.22
2018-09-28T14:55:17.308Z,1.40
2018-09-28T14:57:45.610Z,1.42
2018-09-28T15:00:13.975Z,1.25
2018-09-28T15:02:42.551Z,1.12
2018-09-28T15:05:10.948Z,1.42
2018-09-28T15:07:39.576Z,1.30
2018-09-28T15:10:07.973Z,1.35
2018-09-28T15:12:36.411Z,1.40
2018-09-28T15:18:25.759Z,1.32
2018-09-28T15:20:54.260Z,1.20
2018-09-28T15:23:22.734Z,1.50
2018-09-28T15:25:51.130Z,1.50
2018-09-28T15:28:19.459Z,1.20
2018-09-28T15:30:47.791Z,1.50
2018-09-28T15:33:16.178Z,1.37
2018-09-28T15:35:44.694Z,1.37
2018-09-28T15:38:13.133Z,1.35
2018-09-28T15:40:41.487Z,1.22
2018-09-28T15:43:09.893Z,1.32
2018-09-28T15:45:38.204Z,1.30
2018-09-28T15:48:06.663Z,0.98
2018-09-28T15:50:35.038Z,1.10
2018-09-28T15:53:03.536Z,1.05
2018-09-28T15:55:32.027Z,1.30
2018-09-28T15:58:00.326Z,1.40
2018-09-28T16:00:29.161Z,1.30
2018-09-28T16:02:57.577Z,1.40
2018-09-28T16:05:25.960Z,1.30
2018-09-28T16:07:54.321Z,1.50
2018-09-28T16:10:22.752Z,1.30
2018-09-28T16:12:51.119Z,1.50
2018-09-28T16:18:43.021Z,1.15
2018-09-28T16:21:11.483Z,1.15
2018-09-28T16:23:39.935Z,1.60
2018-09-28T16:26:08.268Z,1.30
2018-09-28T16:28:36.716Z,1.90
2018-09-28T16:31:05.495Z,2.40
2018-09-28T16:33:33.891Z,2.25
2018-09-28T16:36:02.456Z,2.25
2018-09-28T16:38:30.878Z,1.82
2018-09-28T16:40:59.308Z,1.90
2018-09-28T16:43:27.690Z,1.95
2018-09-28T16:45:57.379Z,1.70
2018-09-28T16:48:26.044Z,1.60
2018-09-28T16:50:54.379Z,1.60
2018-09-28T16:53:22.947Z,1.62
2018-09-28T16:55:51.508Z,1.82
2018-09-28T16:58:20.168Z,1.72
2018-09-28T17:00:48.503Z,1.80
2018-09-28T17:03:16.848Z,1.80
2018-09-28T17:05:45.264Z,1.75
2018-09-28T17:08:13.614Z,1.98
2018-09-28T17:10:42.012Z,1.75
2018-09-28T17:13:10.376Z,1.67
2018-09-28T17:19:01.542Z,1.50
2018-09-28T17:21:30.184Z,1.72
2018-09-28T17:23:58.553Z,1.35
2018-09-28T17:26:27.370Z,1.72
2018-09-28T17:28:55.761Z,1.60
2018-09-28T17:31:24.408Z,1.98
2018-09-28T17:33:52.868Z,1.87
2018-09-28T17:36:21.504Z,2.00
2018-09-28T17:38:50.184Z,2.10
2018-09-28T17:41:19.033Z,1.80
2018-09-28T17:43:47.532Z,2.22
2018-09-28T17:46:16.122Z,2.15
2018-09-28T17:48:44.556Z,1.70
2018-09-28T17:51:12.965Z,1.80
2018-09-28T17:53:41.532Z,1.90
2018-09-28T17:56:09.872Z,2.20
2018-09-28T17:58:38.428Z,2.23
2018-09-28T18:01:06.817Z,2.60
2018-09-28T18:03:35.323Z,2.20
2018-09-28T18:06:03.787Z,2.20
2018-09-28T18:08:32.250Z,2.13
2018-09-28T18:11:00.540Z,2.33
2018-09-28T18:13:29.209Z,2.50
2018-09-28T18:19:20.100Z,4.27
2018-09-28T18:21:48.868Z,3.70
2018-09-28T18:24:17.234Z,3.30
2018-09-28T18:26:45.603Z,3.27
2018-09-28T18:29:14.065Z,2.53
2018-09-28T18:31:42.735Z,3.10
2018-09-28T18:34:11.135Z,3.10
2018-09-28T18:36:39.481Z,2.73
2018-09-28T18:39:09.287Z,2.70
2018-09-28T18:41:38.097Z,2.30
2018-09-28T18:44:06.811Z,2.10
2018-09-28T18:46:35.204Z,2.50
2018-09-28T18:49:03.858Z,2.83
2018-09-28T18:51:32.156Z,2.57
2018-09-28T18:54:00.511Z,2.20
2018-09-28T18:56:28.936Z,2.50
2018-09-28T18:58:57.351Z,2.43
2018-09-28T19:01:25.682Z,2.20
2018-09-28T19:03:54.112Z,1.80
2018-09-28T19:06:22.624Z,1.83
2018-09-28T19:08:51.216Z,1.70
2018-09-28T19:11:19.663Z,1.70
2018-09-28T19:13:48.284Z,1.90
2018-09-28T19:16:55.723Z,1.87
2018-09-28T19:19:24.170Z,1.80
2018-09-28T19:21:53.284Z,1.57
2018-09-28T19:24:21.634Z,1.77
2018-09-28T19:26:50.012Z,1.50
2018-09-28T19:29:18.325Z,1.57
2018-09-28T19:31:46.983Z,1.70
2018-09-28T19:34:15.377Z,2.00
2018-09-28T19:36:43.796Z,1.90
2018-09-28T19:39:12.472Z,1.70
2018-09-28T19:41:40.952Z,1.70
2018-09-28T19:44:09.682Z,1.50
2018-09-28T19:46:38.399Z,1.60
2018-09-28T19:49:07.183Z,1.47
2018-09-28T19:51:35.908Z,1.60
2018-09-28T19:54:04.424Z,1.20
2018-09-28T19:56:32.712Z,1.40
2018-09-28T19:59:01.199Z,1.50
2018-09-28T20:01:29.568Z,1.70
2018-09-28T20:03:58.019Z,1.40
2018-09-28T20:06:26.403Z,1.60
2018-09-28T20:08:54.851Z,1.50
2018-09-28T20:11:23.223Z,1.60
2018-09-28T20:13:51.655Z,1.60
2018-09-28T20:17:00.387Z,1.70
2018-09-28T20:19:28.696Z,1.60
2018-09-28T20:21:56.996Z,1.40
2018-09-28T20:24:25.495Z,1.27
2018-09-28T20:30:14.811Z,1.53
2018-09-28T20:32:43.288Z,1.40
2018-09-28T20:35:11.724Z,1.33
2018-09-28T20:37:40.100Z,1.50
2018-09-28T20:40:08.536Z,1.40
2018-09-28T20:42:36.851Z,1.23
2018-09-28T20:45:05.202Z,1.30
2018-09-28T20:47:33.803Z,1.60
2018-09-28T20:50:02.239Z,1.47
2018-09-28T20:52:30.619Z,1.60
2018-09-28T20:54:58.981Z,1.43
2018-09-28T20:57:27.227Z,1.60
2018-09-28T20:59:55.599Z,1.70
2018-09-28T21:02:24.068Z,1.63
2018-09-28T21:04:52.430Z,1.73
2018-09-28T21:07:20.848Z,1.50
2018-09-28T21:09:49.067Z,1.70
2018-09-28T21:12:17.376Z,1.60
2018-09-28T21:15:20.527Z,1.37
2018-09-28T21:17:48.844Z,1.60
2018-09-28T21:20:17.288Z,1.47
2018-09-28T21:22:45.704Z,1.70
2018-09-28T21:25:14.083Z,1.67
2018-09-28T21:27:42.495Z,1.50
2018-09-28T21:30:10.971Z,1.10
2018-09-28T21:32:39.317Z,1.23
2018-09-28T21:35:07.845Z,1.40
2018-09-28T21:37:36.219Z,1.20
2018-09-28T21:40:04.576Z,1.20
2018-09-28T21:42:32.956Z,1.40
2018-09-28T21:45:01.328Z,1.43
2018-09-28T21:47:29.768Z,1.30
2018-09-28T21:49:58.220Z,1.40
2018-09-28T21:52:26.583Z,1.20
2018-09-28T21:54:54.965Z,1.20
2018-09-28T21:57:23.409Z,1.40
2018-09-28T21:59:51.771Z,1.53
2018-09-28T22:02:20.263Z,1.60
2018-09-28T22:04:48.651Z,1.37
2018-09-28T22:07:17.043Z,1.50
2018-09-28T22:09:45.392Z,1.70
2018-09-28T22:12:13.859Z,1.57
2018-09-28T22:14:42.351Z,1.63
2018-09-28T22:17:10.647Z,1.50
2018-09-28T22:19:38.980Z,1.47
2018-09-28T22:22:07.250Z,1.53
2018-09-28T22:24:40.089Z,1.23
2018-09-28T22:27:12.902Z,1.20
2018-09-28T22:29:41.355Z,1.40
2018-09-28T22:32:09.748Z,1.40
2018-09-28T22:34:38.140Z,1.20
2018-09-28T22:37:06.468Z,1.20
2018-09-28T22:39:34.843Z,1.40
2018-09-28T22:42:03.162Z,1.30
2018-09-28T22:44:31.456Z,1.30
2018-09-28T22:46:59.862Z,1.50
2018-09-28T22:49:28.227Z,1.50
2018-09-28T22:51:56.663Z,1.33
2018-09-28T22:54:25.092Z,1.00
2018-09-28T22:56:53.503Z,1.20
2018-09-28T22:59:21.931Z,1.00
2018-09-28T23:01:50.330Z,1.10
2018-09-28T23:04:18.811Z,1.10
2018-09-28T23:06:46.999Z,1.23
2018-09-28T23:09:15.434Z,1.30
2018-09-28T23:11:43.794Z,1.10
2018-09-28T23:14:12.146Z,1.20
2018-09-28T23:16:40.447Z,1.40
2018-09-28T23:19:08.810Z,1.20
2018-09-28T23:21:37.267Z,1.20
2018-09-28T23:24:05.680Z,1.53
2018-09-28T23:26:34.011Z,1.53
2018-09-28T23:29:02.399Z,1.50
2018-09-28T23:31:30.832Z,1.50
2018-09-28T23:33:59.099Z,1.50
2018-09-28T23:36:27.408Z,1.20
2018-09-28T23:38:55.776Z,1.20
2018-09-28T23:41:24.084Z,1.40
2018-09-28T23:43:52.444Z,1.47
2018-09-28T23:46:20.887Z,1.20
2018-09-28T23:48:49.391Z,1.40
2018-09-28T23:51:17.827Z,1.40
2018-09-28T23:53:47.159Z,1.20
2018-09-28T23:56:15.504Z,1.43
2018-09-28T23:58:43.830Z,1.13
